sensor_id;sensor_type;location;lat;lon;timestamp;pressure;altitude;pressure_sealevel;temperature;humidity
25232;BME280;13176;51.140;6.290;2024-01-10T00:02:21;102235.03;;;0.01;51.96
25232;BME280;13176;51.140;6.290;2024-01-10T00:04:48;102071.81;;;-0.94;51.11
25232;BME280;13176;51.140;6.290;2024-01-10T00:07:14;102132.69;;;-0.74;51.98
25232;BME280;13176;51.140;6.290;2024-01-10T00:09:41;102090.41;;;-0.66;52.20
25232;BME280;13176;51.140;6.290;2024-01-10T00:12:07;102110.94;;;-0.50;51.20
25232;BME280;13176;51.140;6.290;2024-01-10T00:14:34;102135.75;;;-0.49;51.46
25232;BME280;13176;51.140;6.290;2024-01-10T00:17:00;102126.78;;;-0.41;51.30
25232;BME280;13176;51.140;6.290;2024-01-10T00:19:27;102108.84;;;-0.57;51.69
25232;BME280;13176;51.140;6.290;2024-01-10T00:21:53;102224.84;;;0.19;51.09
25232;BME280;13176;51.140;6.290;2024-01-10T00:24:20;102156.38;;;0.02;51.03
25232;BME280;13176;51.140;6.290;2024-01-10T00:26:46;102135.75;;;-0.17;50.62
25232;BME280;13176;51.140;6.290;2024-01-10T00:29:12;102130.28;;;-0.55;50.88
25232;BME280;13176;51.140;6.290;2024-01-10T00:31:39;102136.41;;;-0.37;50.91
25232;BME280;13176;51.140;6.290;2024-01-10T00:34:06;102149.53;;;-0.47;51.70
25232;BME280;13176;51.140;6.290;2024-01-10T00:36:33;102172.28;;;-0.37;51.77
25232;BME280;13176;51.140;6.290;2024-01-10T00:38:59;102031.66;;;-1.25;51.29
25232;BME280;13176;51.140;6.290;2024-01-10T00:41:25;102124.78;;;-0.46;51.36
25232;BME280;13176;51.140;6.290;2024-01-10T00:43:52;102247.22;;;0.37;51.49
25232;BME280;13176;51.140;6.290;2024-01-10T00:46:18;102117.50;;;-0.39;51.06
25232;BME280;13176;51.140;6.290;2024-01-10T00:48:45;102129.19;;;-0.44;50.94
25232;BME280;13176;51.140;6.290;2024-01-10T00:51:12;102048.38;;;-1.01;50.79
25232;BME280;13176;51.140;6.290;2024-01-10T00:53:38;102075.38;;;-0.76;51.67
25232;BME280;13176;51.140;6.290;2024-01-10T00:56:06;102124.31;;;-0.55;51.30
25232;BME280;13176;51.140;6.290;2024-01-10T00:58:32;102068.63;;;-0.90;51.53
25232;BME280;13176;51.140;6.290;2024-01-10T01:00:59;102079.78;;;-1.04;51.43
25232;BME280;13176;51.140;6.290;2024-01-10T01:03:26;102107.84;;;-0.91;51.09
25232;BME280;13176;51.140;6.290;2024-01-10T01:05:52;102103.81;;;-1.02;51.85
25232;BME280;13176;51.140;6.290;2024-01-10T01:08:19;102110.22;;;-1.10;51.68
25232;BME280;13176;51.140;6.290;2024-01-10T01:10:45;102065.59;;;-1.43;52.78
25232;BME280;13176;51.140;6.290;2024-01-10T01:13:12;102126.38;;;-0.95;52.18
25232;BME280;13176;51.140;6.290;2024-01-10T01:15:38;102169.28;;;-0.44;51.78
25232;BME280;13176;51.140;6.290;2024-01-10T01:18:06;102109.13;;;-0.83;52.07
25232;BME280;13176;51.140;6.290;2024-01-10T01:20:33;102246.88;;;-0.01;52.22
25232;BME280;13176;51.140;6.290;2024-01-10T01:22:59;102072.69;;;-1.09;51.73
25232;BME280;13176;51.140;6.290;2024-01-10T01:25:26;102148.47;;;-0.50;52.56
25232;BME280;13176;51.140;6.290;2024-01-10T01:27:52;102120.22;;;-0.52;52.07
25232;BME280;13176;51.140;6.290;2024-01-10T01:30:19;102178.44;;;-0.33;51.35
25232;BME280;13176;51.140;6.290;2024-01-10T01:32:48;102264.94;;;0.17;52.17
25232;BME280;13176;51.140;6.290;2024-01-10T01:35:15;102016.53;;;-1.36;51.64
25232;BME280;13176;51.140;6.290;2024-01-10T01:37:42;102088.31;;;-0.73;52.33
25232;BME280;13176;51.140;6.290;2024-01-10T01:40:08;102124.94;;;-0.43;52.09
25232;BME280;13176;51.140;6.290;2024-01-10T01:42:35;102120.22;;;-0.52;52.05
25232;BME280;13176;51.140;6.290;2024-01-10T01:45:01;102049.91;;;-0.89;51.68
25232;BME280;13176;51.140;6.290;2024-01-10T01:47:28;102249.06;;;0.24;51.26
25232;BME280;13176;51.140;6.290;2024-01-10T01:49:54;102249.56;;;0.33;52.40
25232;BME280;13176;51.140;6.290;2024-01-10T01:52:21;102142.16;;;-0.25;51.14
25232;BME280;13176;51.140;6.290;2024-01-10T01:54:48;102052.94;;;-0.96;51.64
25232;BME280;13176;51.140;6.290;2024-01-10T01:57:14;102134.25;;;-0.29;52.09
25232;BME280;13176;51.140;6.290;2024-01-10T01:59:41;102085.44;;;-0.63;50.89
25232;BME280;13176;51.140;6.290;2024-01-10T02:02:07;102089.88;;;-0.60;51.57
25232;BME280;13176;51.140;6.290;2024-01-10T02:04:36;102080.31;;;-0.63;51.02
25232;BME280;13176;51.140;6.290;2024-01-10T02:07:03;102092.50;;;-0.75;51.30
25232;BME280;13176;51.140;6.290;2024-01-10T02:09:30;102141.22;;;-0.43;51.15
25232;BME280;13176;51.140;6.290;2024-01-10T02:11:56;102068.28;;;-0.96;51.29
25232;BME280;13176;51.140;6.290;2024-01-10T02:14:22;102096.84;;;-0.74;50.97
25232;BME280;13176;51.140;6.290;2024-01-10T02:16:49;102141.31;;;-0.72;52.00
25232;BME280;13176;51.140;6.290;2024-01-10T02:19:20;102222.03;;;-0.17;52.29
25232;BME280;13176;51.140;6.290;2024-01-10T02:21:46;102093.09;;;-0.95;52.22
25232;BME280;13176;51.140;6.290;2024-01-10T02:24:13;102025.22;;;-1.03;51.99
25232;BME280;13176;51.140;6.290;2024-01-10T02:26:39;102128.88;;;-0.50;51.51
25232;BME280;13176;51.140;6.290;2024-01-10T02:29:06;102076.81;;;-0.81;51.82
25232;BME280;13176;51.140;6.290;2024-01-10T02:31:32;102127.75;;;-0.55;51.19
25232;BME280;13176;51.140;6.290;2024-01-10T02:33:59;102138.06;;;-0.53;51.64
25232;BME280;13176;51.140;6.290;2024-01-10T02:36:26;102074.94;;;-0.83;51.82
25232;BME280;13176;51.140;6.290;2024-01-10T02:38:52;102089.44;;;-0.84;51.96
25232;BME280;13176;51.140;6.290;2024-01-10T02:41:19;102218.28;;;-0.08;52.56
25232;BME280;13176;51.140;6.290;2024-01-10T02:43:45;102006.97;;;-1.24;51.51
25232;BME280;13176;51.140;6.290;2024-01-10T02:46:12;102107.16;;;-1.03;51.81
25232;BME280;13176;51.140;6.290;2024-01-10T02:48:38;102056.75;;;-1.19;51.87
25232;BME280;13176;51.140;6.290;2024-01-10T02:51:05;102067.50;;;-1.11;52.53
25232;BME280;13176;51.140;6.290;2024-01-10T02:53:31;102105.28;;;-0.91;51.78
25232;BME280;13176;51.140;6.290;2024-01-10T02:55:58;102055.31;;;-1.14;51.91
25232;BME280;13176;51.140;6.290;2024-01-10T02:58:24;102063.06;;;-1.13;52.67
25232;BME280;13176;51.140;6.290;2024-01-10T03:00:51;102156.72;;;-0.56;51.74
25232;BME280;13176;51.140;6.290;2024-01-10T03:03:18;102139.72;;;-0.70;51.64
25232;BME280;13176;51.140;6.290;2024-01-10T03:05:44;102160.28;;;-0.38;51.85
25232;BME280;13176;51.140;6.290;2024-01-10T03:08:11;101997.19;;;-1.47;51.11
25232;BME280;13176;51.140;6.290;2024-01-10T03:10:38;102114.59;;;-0.77;51.68
25232;BME280;13176;51.140;6.290;2024-01-10T03:13:04;102155.59;;;-0.61;51.54
25232;BME280;13176;51.140;6.290;2024-01-10T03:15:31;102107.38;;;-0.68;51.50
25232;BME280;13176;51.140;6.290;2024-01-10T03:17:57;102084.50;;;-0.81;51.67
25232;BME280;13176;51.140;6.290;2024-01-10T03:20:24;102140.38;;;-0.58;51.47
25232;BME280;13176;51.140;6.290;2024-01-10T03:22:50;102022.50;;;-1.21;52.24
25232;BME280;13176;51.140;6.290;2024-01-10T03:25:17;102169.06;;;-0.33;52.38
25232;BME280;13176;51.140;6.290;2024-01-10T03:27:43;102039.47;;;-1.08;51.96
25232;BME280;13176;51.140;6.290;2024-01-10T03:30:10;102015.91;;;-1.32;51.19
25232;BME280;13176;51.140;6.290;2024-01-10T03:32:37;101976.00;;;-1.45;51.47
25232;BME280;13176;51.140;6.290;2024-01-10T03:35:04;102144.03;;;-0.69;51.13
25232;BME280;13176;51.140;6.290;2024-01-10T03:37:30;102107.28;;;-0.85;51.24
25232;BME280;13176;51.140;6.290;2024-01-10T03:39:57;102056.34;;;-1.11;51.75
25232;BME280;13176;51.140;6.290;2024-01-10T03:42:25;102137.94;;;-0.71;51.71
25232;BME280;13176;51.140;6.290;2024-01-10T03:44:51;102021.41;;;-1.11;51.68
25232;BME280;13176;51.140;6.290;2024-01-10T03:47:18;102103.22;;;-0.82;51.18
25232;BME280;13176;51.140;6.290;2024-01-10T03:49:45;102059.94;;;-1.08;51.08
25232;BME280;13176;51.140;6.290;2024-01-10T03:52:12;102082.06;;;-0.94;51.07
25232;BME280;13176;51.140;6.290;2024-01-10T03:54:38;102081.56;;;-1.03;50.89
25232;BME280;13176;51.140;6.290;2024-01-10T03:57:05;102063.44;;;-1.21;51.42
25232;BME280;13176;51.140;6.290;2024-01-10T03:59:31;102127.53;;;-0.90;51.50
25232;BME280;13176;51.140;6.290;2024-01-10T04:01:59;101993.34;;;-1.55;51.10
25232;BME280;13176;51.140;6.290;2024-01-10T04:04:27;102075.97;;;-1.12;51.08
25232;BME280;13176;51.140;6.290;2024-01-10T04:06:53;102049.91;;;-1.35;50.93
25232;BME280;13176;51.140;6.290;2024-01-10T04:09:20;102047.59;;;-1.30;51.13
25232;BME280;13176;51.140;6.290;2024-01-10T04:11:46;102037.69;;;-1.24;51.01
25232;BME280;13176;51.140;6.290;2024-01-10T04:14:13;102044.97;;;-1.16;50.81
25232;BME280;13176;51.140;6.290;2024-01-10T04:16:39;102054.59;;;-1.12;50.95
25232;BME280;13176;51.140;6.290;2024-01-10T04:19:06;102076.44;;;-1.03;50.62
25232;BME280;13176;51.140;6.290;2024-01-10T04:21:32;102169.91;;;-0.64;50.65
25232;BME280;13176;51.140;6.290;2024-01-10T04:23:59;102121.13;;;-1.12;50.87
25232;BME280;13176;51.140;6.290;2024-01-10T04:26:26;102164.00;;;-0.94;51.41
25232;BME280;13176;51.140;6.290;2024-01-10T04:28:52;102034.03;;;-1.89;52.26
25232;BME280;13176;51.140;6.290;2024-01-10T04:31:19;102049.09;;;-1.64;51.93
25232;BME280;13176;51.140;6.290;2024-01-10T04:33:45;102054.75;;;-1.39;52.06
25232;BME280;13176;51.140;6.290;2024-01-10T04:36:12;102163.53;;;-0.56;52.29
25232;BME280;13176;51.140;6.290;2024-01-10T04:38:38;102017.16;;;-1.56;52.00
25232;BME280;13176;51.140;6.290;2024-01-10T04:41:05;102041.50;;;-1.32;51.07
25232;BME280;13176;51.140;6.290;2024-01-10T04:43:31;102011.84;;;-1.59;52.01
25232;BME280;13176;51.140;6.290;2024-01-10T04:45:58;101994.06;;;-1.72;51.62
25232;BME280;13176;51.140;6.290;2024-01-10T04:48:24;102055.88;;;-1.34;52.41
25232;BME280;13176;51.140;6.290;2024-01-10T04:50:51;102059.94;;;-1.23;51.66
25232;BME280;13176;51.140;6.290;2024-01-10T04:53:17;102066.47;;;-1.28;51.88
25232;BME280;13176;51.140;6.290;2024-01-10T04:55:44;102040.03;;;-1.43;52.15
25232;BME280;13176;51.140;6.290;2024-01-10T04:58:13;102060.63;;;-1.26;52.50
25232;BME280;13176;51.140;6.290;2024-01-10T05:00:39;102061.53;;;-1.25;52.24
25232;BME280;13176;51.140;6.290;2024-01-10T05:03:06;102040.38;;;-1.37;52.08
25232;BME280;13176;51.140;6.290;2024-01-10T05:05:32;102026.22;;;-1.61;51.71
25232;BME280;13176;51.140;6.290;2024-01-10T05:07:59;102033.00;;;-1.47;51.77
25232;BME280;13176;51.140;6.290;2024-01-10T05:10:27;101997.41;;;-1.73;52.05
25232;BME280;13176;51.140;6.290;2024-01-10T05:12:53;102021.97;;;-1.46;52.29
25232;BME280;13176;51.140;6.290;2024-01-10T05:15:20;102100.63;;;-0.98;52.10
25232;BME280;13176;51.140;6.290;2024-01-10T05:17:46;101993.63;;;-1.65;51.44
25232;BME280;13176;51.140;6.290;2024-01-10T05:20:13;102016.38;;;-1.39;53.05
25232;BME280;13176;51.140;6.290;2024-01-10T05:22:40;102062.47;;;-0.93;51.61
25232;BME280;13176;51.140;6.290;2024-01-10T05:25:06;101998.78;;;-1.49;52.10
25232;BME280;13176;51.140;6.290;2024-01-10T05:27:33;102053.22;;;-1.21;51.98
25232;BME280;13176;51.140;6.290;2024-01-10T05:29:59;102098.47;;;-0.90;52.35
25232;BME280;13176;51.140;6.290;2024-01-10T05:32:26;102145.19;;;-0.48;53.14
25232;BME280;13176;51.140;6.290;2024-01-10T05:34:54;102063.97;;;-0.97;51.98
25232;BME280;13176;51.140;6.290;2024-01-10T05:37:21;102014.94;;;-1.34;51.95
25232;BME280;13176;51.140;6.290;2024-01-10T05:39:48;101993.44;;;-1.38;51.90
25232;BME280;13176;51.140;6.290;2024-01-10T05:42:15;102031.94;;;-1.05;52.45
25232;BME280;13176;51.140;6.290;2024-01-10T05:44:42;102103.91;;;-0.84;51.99
25232;BME280;13176;51.140;6.290;2024-01-10T05:47:11;102046.34;;;-1.22;52.48
25232;BME280;13176;51.140;6.290;2024-01-10T05:49:44;102092.63;;;-0.88;51.85
25232;BME280;13176;51.140;6.290;2024-01-10T05:52:10;102094.56;;;-0.84;51.82
25232;BME280;13176;51.140;6.290;2024-01-10T05:54:38;102163.13;;;-0.48;51.59
25232;BME280;13176;51.140;6.290;2024-01-10T05:57:05;102010.78;;;-1.48;52.43
25232;BME280;13176;51.140;6.290;2024-01-10T05:59:32;101987.19;;;-1.73;52.70
25232;BME280;13176;51.140;6.290;2024-01-10T06:01:58;102023.50;;;-1.64;52.73
25232;BME280;13176;51.140;6.290;2024-01-10T06:04:25;102035.84;;;-1.57;52.78
25232;BME280;13176;51.140;6.290;2024-01-10T06:06:54;102071.31;;;-1.18;53.12
25232;BME280;13176;51.140;6.290;2024-01-10T06:09:21;102063.78;;;-1.15;53.02
25232;BME280;13176;51.140;6.290;2024-01-10T06:11:48;102067.88;;;-1.33;52.59
25232;BME280;13176;51.140;6.290;2024-01-10T06:14:15;102042.63;;;-1.58;52.36
25232;BME280;13176;51.140;6.290;2024-01-10T06:16:41;102071.06;;;-1.37;53.16
25232;BME280;13176;51.140;6.290;2024-01-10T06:19:09;102061.34;;;-1.28;53.45
25232;BME280;13176;51.140;6.290;2024-01-10T06:21:37;102021.63;;;-1.52;52.98
25232;BME280;13176;51.140;6.290;2024-01-10T06:24:04;102181.06;;;-0.48;52.94
25232;BME280;13176;51.140;6.290;2024-01-10T06:26:31;102139.88;;;-0.83;52.38
25232;BME280;13176;51.140;6.290;2024-01-10T06:28:57;102036.00;;;-1.54;53.07
25232;BME280;13176;51.140;6.290;2024-01-10T06:31:24;102071.59;;;-1.28;53.03
25232;BME280;13176;51.140;6.290;2024-01-10T06:33:50;101955.84;;;-1.85;53.60
25232;BME280;13176;51.140;6.290;2024-01-10T06:36:17;102135.53;;;-0.84;52.94
25232;BME280;13176;51.140;6.290;2024-01-10T06:38:44;102071.13;;;-1.21;52.67
25232;BME280;13176;51.140;6.290;2024-01-10T06:41:11;102041.63;;;-1.45;52.65
25232;BME280;13176;51.140;6.290;2024-01-10T06:43:40;102019.69;;;-1.56;52.66
25232;BME280;13176;51.140;6.290;2024-01-10T06:46:07;102105.72;;;-0.98;52.38
25232;BME280;13176;51.140;6.290;2024-01-10T06:48:33;101901.34;;;-2.15;52.32
25232;BME280;13176;51.140;6.290;2024-01-10T06:51:00;102012.66;;;-1.60;52.91
25232;BME280;13176;51.140;6.290;2024-01-10T06:53:27;102016.63;;;-1.65;52.98
25232;BME280;13176;51.140;6.290;2024-01-10T06:55:53;101997.06;;;-1.65;53.26
25232;BME280;13176;51.140;6.290;2024-01-10T06:58:20;101976.19;;;-1.87;52.92
25232;BME280;13176;51.140;6.290;2024-01-10T07:00:46;101974.84;;;-1.80;53.16
25232;BME280;13176;51.140;6.290;2024-01-10T07:03:13;102057.66;;;-1.33;53.69
25232;BME280;13176;51.140;6.290;2024-01-10T07:05:39;102033.53;;;-1.53;53.97
25232;BME280;13176;51.140;6.290;2024-01-10T07:08:06;102016.44;;;-1.68;54.25
25232;BME280;13176;51.140;6.290;2024-01-10T07:10:33;102027.22;;;-1.43;53.72
25232;BME280;13176;51.140;6.290;2024-01-10T07:13:00;102007.25;;;-1.50;53.54
25232;BME280;13176;51.140;6.290;2024-01-10T07:15:30;102011.88;;;-1.74;53.81
25232;BME280;13176;51.140;6.290;2024-01-10T07:17:57;101975.53;;;-1.68;53.58
25232;BME280;13176;51.140;6.290;2024-01-10T07:20:23;102039.63;;;-1.20;53.46
25232;BME280;13176;51.140;6.290;2024-01-10T07:22:50;102018.31;;;-1.35;53.35
25232;BME280;13176;51.140;6.290;2024-01-10T07:25:17;101961.63;;;-1.73;53.59
25232;BME280;13176;51.140;6.290;2024-01-10T07:27:44;101998.50;;;-1.54;53.34
25232;BME280;13176;51.140;6.290;2024-01-10T07:30:10;102080.75;;;-1.02;53.84
25232;BME280;13176;51.140;6.290;2024-01-10T07:32:41;102033.75;;;-1.34;52.96
25232;BME280;13176;51.140;6.290;2024-01-10T07:35:08;102051.28;;;-1.25;53.56
25232;BME280;13176;51.140;6.290;2024-01-10T07:37:39;102032.16;;;-1.32;53.54
25232;BME280;13176;51.140;6.290;2024-01-10T07:40:07;101979.47;;;-1.89;53.47
25232;BME280;13176;51.140;6.290;2024-01-10T07:42:35;102002.19;;;-1.65;54.09
25232;BME280;13176;51.140;6.290;2024-01-10T07:45:02;102156.38;;;-0.62;54.24
25232;BME280;13176;51.140;6.290;2024-01-10T07:47:32;102062.31;;;-1.26;53.76
25232;BME280;13176;51.140;6.290;2024-01-10T07:50:09;102071.06;;;-1.37;53.93
25232;BME280;13176;51.140;6.290;2024-01-10T07:52:36;101965.47;;;-1.65;54.31
25232;BME280;13176;51.140;6.290;2024-01-10T07:55:03;102029.22;;;-1.23;53.53
25232;BME280;13176;51.140;6.290;2024-01-10T07:57:31;102036.78;;;-1.25;53.93
25232;BME280;13176;51.140;6.290;2024-01-10T07:59:58;101992.53;;;-1.54;54.51
25232;BME280;13176;51.140;6.290;2024-01-10T08:02:25;102093.13;;;-0.79;53.97
25232;BME280;13176;51.140;6.290;2024-01-10T08:04:52;101934.63;;;-1.68;53.67
25232;BME280;13176;51.140;6.290;2024-01-10T08:07:19;102048.38;;;-1.01;53.87
25232;BME280;13176;51.140;6.290;2024-01-10T08:09:46;102065.19;;;-0.74;53.52
25232;BME280;13176;51.140;6.290;2024-01-10T08:12:12;102039.56;;;-1.06;53.41
25232;BME280;13176;51.140;6.290;2024-01-10T08:14:40;102050.66;;;-1.06;52.86
25232;BME280;13176;51.140;6.290;2024-01-10T08:17:07;102024.50;;;-1.16;53.42
25232;BME280;13176;51.140;6.290;2024-01-10T08:19:33;101959.28;;;-1.54;53.50
25232;BME280;13176;51.140;6.290;2024-01-10T08:22:00;102031.78;;;-1.08;53.34
25232;BME280;13176;51.140;6.290;2024-01-10T08:24:26;102010.50;;;-1.22;53.12
25232;BME280;13176;51.140;6.290;2024-01-10T08:26:52;102194.66;;;-0.18;53.68
25232;BME280;13176;51.140;6.290;2024-01-10T08:29:21;102052.44;;;-1.05;53.77
25232;BME280;13176;51.140;6.290;2024-01-10T08:31:48;102109.59;;;-0.90;54.29
25232;BME280;13176;51.140;6.290;2024-01-10T08:34:14;102122.84;;;-0.97;55.21
25232;BME280;13176;51.140;6.290;2024-01-10T08:36:41;102080.75;;;-1.17;54.69
25232;BME280;13176;51.140;6.290;2024-01-10T08:39:07;102213.19;;;-0.38;54.29
25232;BME280;13176;51.140;6.290;2024-01-10T08:41:34;101971.00;;;-1.58;53.70
25232;BME280;13176;51.140;6.290;2024-01-10T08:44:03;102070.47;;;-0.87;54.25
25232;BME280;13176;51.140;6.290;2024-01-10T08:46:30;102046.94;;;-0.96;53.51
25232;BME280;13176;51.140;6.290;2024-01-10T08:48:56;102083.69;;;-0.64;53.14
25232;BME280;13176;51.140;6.290;2024-01-10T08:51:23;102036.09;;;-1.07;53.10
25232;BME280;13176;51.140;6.290;2024-01-10T08:53:49;102108.59;;;-0.61;53.89
25232;BME280;13176;51.140;6.290;2024-01-10T08:56:18;102025.56;;;-1.13;53.09
25232;BME280;13176;51.140;6.290;2024-01-10T08:58:46;102022.22;;;-0.96;53.00
25232;BME280;13176;51.140;6.290;2024-01-10T09:01:13;102084.34;;;-0.52;53.74
25232;BME280;13176;51.140;6.290;2024-01-10T09:03:40;102066.56;;;-0.65;53.44
25232;BME280;13176;51.140;6.290;2024-01-10T09:06:06;102206.31;;;0.24;53.39
25232;BME280;13176;51.140;6.290;2024-01-10T09:08:38;102035.84;;;-0.81;52.87
25232;BME280;13176;51.140;6.290;2024-01-10T09:11:06;102158.97;;;0.02;53.08
25232;BME280;13176;51.140;6.290;2024-01-10T09:13:32;102173.69;;;0.22;52.69
25232;BME280;13176;51.140;6.290;2024-01-10T09:16:00;102187.31;;;0.21;52.33
25232;BME280;13176;51.140;6.290;2024-01-10T09:18:26;102203.97;;;0.45;52.79
25232;BME280;13176;51.140;6.290;2024-01-10T09:20:54;102190.63;;;0.52;52.73
25232;BME280;13176;51.140;6.290;2024-01-10T09:23:22;102194.66;;;0.47;52.34
25232;BME280;13176;51.140;6.290;2024-01-10T09:25:49;102186.78;;;0.44;51.90
25232;BME280;13176;51.140;6.290;2024-01-10T09:28:15;102199.03;;;0.65;52.69
25232;BME280;13176;51.140;6.290;2024-01-10T09:30:41;102185.81;;;0.58;52.04
25232;BME280;13176;51.140;6.290;2024-01-10T09:33:08;102189.03;;;0.54;52.46
25232;BME280;13176;51.140;6.290;2024-01-10T09:35:35;102182.44;;;0.59;52.04
25232;BME280;13176;51.140;6.290;2024-01-10T09:38:02;102204.69;;;0.76;52.23
25232;BME280;13176;51.140;6.290;2024-01-10T09:40:28;102183.84;;;0.52;52.24
25232;BME280;13176;51.140;6.290;2024-01-10T09:42:55;102209.25;;;0.48;51.79
25232;BME280;13176;51.140;6.290;2024-01-10T09:45:23;102180.69;;;0.58;51.86
25232;BME280;13176;51.140;6.290;2024-01-10T09:47:55;102210.78;;;0.78;52.69
25232;BME280;13176;51.140;6.290;2024-01-10T09:50:26;102209.16;;;0.80;52.72
25232;BME280;13176;51.140;6.290;2024-01-10T10:01:04;102076.69;;;0.31;51.96
25232;BME280;13176;51.140;6.290;2024-01-10T10:03:36;102100.00;;;0.53;51.78
25232;BME280;13176;51.140;6.290;2024-01-10T10:06:04;102205.25;;;1.04;51.28
25232;BME280;13176;51.140;6.290;2024-01-10T10:08:31;102206.09;;;1.21;51.35
25232;BME280;13176;51.140;6.290;2024-01-10T10:10:58;102184.25;;;0.95;50.29
25232;BME280;13176;51.140;6.290;2024-01-10T10:13:27;102059.06;;;0.38;50.75
25232;BME280;13176;51.140;6.290;2024-01-10T10:16:00;102077.69;;;0.34;51.26
25232;BME280;13176;51.140;6.290;2024-01-10T10:18:28;102165.16;;;1.07;50.86
25232;BME280;13176;51.140;6.290;2024-01-10T10:21:12;102119.22;;;0.78;51.14
25232;BME280;13176;51.140;6.290;2024-01-10T10:23:43;102206.84;;;1.36;50.74
25232;BME280;13176;51.140;6.290;2024-01-10T10:26:23;102068.38;;;0.71;50.64
25232;BME280;13176;51.140;6.290;2024-01-10T10:28:50;102007.56;;;0.34;50.95
25232;BME280;13176;51.140;6.290;2024-01-10T10:31:18;102123.28;;;1.09;51.33
25232;BME280;13176;51.140;6.290;2024-01-10T10:33:46;102146.47;;;1.28;51.39
25232;BME280;13176;51.140;6.290;2024-01-10T10:36:14;102110.44;;;1.27;51.20
25232;BME280;13176;51.140;6.290;2024-01-10T10:38:41;102142.13;;;1.45;50.65
25232;BME280;13176;51.140;6.290;2024-01-10T10:41:07;102061.63;;;1.09;50.16
25232;BME280;13176;51.140;6.290;2024-01-10T10:43:38;102050.44;;;1.08;49.96
25232;BME280;13176;51.140;6.290;2024-01-10T10:46:10;102107.69;;;1.41;49.32
25232;BME280;13176;51.140;6.290;2024-01-10T10:48:39;102056.47;;;1.27;49.72
25232;BME280;13176;51.140;6.290;2024-01-10T10:53:34;102049.25;;;1.37;49.22
25232;BME280;13176;51.140;6.290;2024-01-10T10:56:03;102199.47;;;2.37;49.65
25232;BME280;13176;51.140;6.290;2024-01-10T10:58:36;102060.72;;;1.64;48.77
25232;BME280;13176;51.140;6.290;2024-01-10T11:01:05;102048.94;;;1.69;48.34
25232;BME280;13176;51.140;6.290;2024-01-10T11:03:37;102053.09;;;1.86;48.00
25232;BME280;13176;51.140;6.290;2024-01-10T11:06:05;102109.63;;;2.24;48.40
25232;BME280;13176;51.140;6.290;2024-01-10T11:08:47;102138.19;;;2.49;48.70
25232;BME280;13176;51.140;6.290;2024-01-10T11:11:50;102010.06;;;1.82;48.00
25232;BME280;13176;51.140;6.290;2024-01-10T11:20:57;102183.00;;;3.15;45.63
25232;BME280;13176;51.140;6.290;2024-01-10T11:23:48;102158.13;;;3.16;46.35
25232;BME280;13176;51.140;6.290;2024-01-10T11:26:16;102167.03;;;3.24;46.45
25232;BME280;13176;51.140;6.290;2024-01-10T11:28:43;102185.78;;;3.41;46.86
25232;BME280;13176;51.140;6.290;2024-01-10T11:31:09;102166.53;;;3.12;46.26
25232;BME280;13176;51.140;6.290;2024-01-10T11:33:38;102174.53;;;3.18;44.91
25232;BME280;13176;51.140;6.290;2024-01-10T11:41:11;102129.88;;;3.19;46.11
25232;BME280;13176;51.140;6.290;2024-01-10T11:43:38;102109.00;;;3.13;46.71
25232;BME280;13176;51.140;6.290;2024-01-10T11:46:06;102143.56;;;3.39;46.61
25232;BME280;13176;51.140;6.290;2024-01-10T11:48:33;102141.69;;;3.35;46.36
25232;BME280;13176;51.140;6.290;2024-01-10T11:50:59;102104.56;;;2.87;47.16
25232;BME280;13176;51.140;6.290;2024-01-10T11:53:44;102143.53;;;2.96;47.63
25232;BME280;13176;51.140;6.290;2024-01-10T11:56:16;102145.78;;;3.09;45.98
25232;BME280;13176;51.140;6.290;2024-01-10T11:59:07;102161.75;;;3.21;46.17
25232;BME280;13176;51.140;6.290;2024-01-10T12:01:42;102089.41;;;2.74;46.39
25232;BME280;13176;51.140;6.290;2024-01-10T12:04:08;102097.16;;;2.96;46.45
25232;BME280;13176;51.140;6.290;2024-01-10T12:06:49;102101.84;;;2.84;46.47
25232;BME280;13176;51.140;6.290;2024-01-10T12:09:16;102101.59;;;2.78;46.48
25232;BME280;13176;51.140;6.290;2024-01-10T12:11:42;102123.88;;;2.98;46.65
25232;BME280;13176;51.140;6.290;2024-01-10T12:14:09;102114.22;;;2.92;46.96
25232;BME280;13176;51.140;6.290;2024-01-10T12:16:36;102111.09;;;3.01;46.29
25232;BME280;13176;51.140;6.290;2024-01-10T12:19:03;102108.19;;;3.14;45.11
25232;BME280;13176;51.140;6.290;2024-01-10T12:21:29;102143.59;;;3.18;46.41
25232;BME280;13176;51.140;6.290;2024-01-10T12:23:56;102133.31;;;3.19;46.58
25232;BME280;13176;51.140;6.290;2024-01-10T12:26:22;102110.38;;;3.03;46.52
25232;BME280;13176;51.140;6.290;2024-01-10T12:28:57;102133.28;;;3.18;46.40
25232;BME280;13176;51.140;6.290;2024-01-10T12:31:27;102132.28;;;3.36;45.54
25232;BME280;13176;51.140;6.290;2024-01-10T12:33:59;102119.78;;;3.46;45.26
25232;BME280;13176;51.140;6.290;2024-01-10T12:36:26;102129.34;;;3.72;45.12
25232;BME280;13176;51.140;6.290;2024-01-10T12:38:52;102136.38;;;3.76;45.21
25232;BME280;13176;51.140;6.290;2024-01-10T12:41:19;102133.09;;;3.80;45.51
25232;BME280;13176;51.140;6.290;2024-01-10T12:43:52;102138.59;;;3.89;45.61
25232;BME280;13176;51.140;6.290;2024-01-10T12:46:18;102115.28;;;3.64;44.63
25232;BME280;13176;51.140;6.290;2024-01-10T12:48:45;102041.63;;;3.26;45.27
25232;BME280;13176;51.140;6.290;2024-01-10T12:51:12;102128.00;;;3.82;44.89
25232;BME280;13176;51.140;6.290;2024-01-10T12:53:40;102093.94;;;3.68;45.05
25232;BME280;13176;51.140;6.290;2024-01-10T12:56:09;102135.06;;;3.87;45.45
25232;BME280;13176;51.140;6.290;2024-01-10T12:58:41;102080.28;;;3.47;45.04
25232;BME280;13176;51.140;6.290;2024-01-10T13:01:08;102060.69;;;3.31;44.69
25232;BME280;13176;51.140;6.290;2024-01-10T13:03:35;102114.31;;;3.61;44.11
25232;BME280;13176;51.140;6.290;2024-01-10T13:06:02;102121.84;;;3.78;45.00
25232;BME280;13176;51.140;6.290;2024-01-10T13:08:28;102136.66;;;3.60;45.75
25232;BME280;13176;51.140;6.290;2024-01-10T13:10:55;102140.34;;;3.67;45.31
25232;BME280;13176;51.140;6.290;2024-01-10T13:13:21;102136.59;;;3.82;45.51
25232;BME280;13176;51.140;6.290;2024-01-10T13:15:48;102109.16;;;3.61;45.44
25232;BME280;13176;51.140;6.290;2024-01-10T13:18:15;102132.22;;;3.80;45.79